createdAt,value
2023-05-15T00:01:04.511Z,99731.59
2023-05-15T00:06:07.447Z,99723.06
2023-05-15T00:11:11.829Z,99717.06
2023-05-15T00:16:14.665Z,99713.25
2023-05-15T00:21:18.061Z,99710.13
2023-05-15T00:26:25.193Z,99702.16
2023-05-15T00:31:28.187Z,99696.47
2023-05-15T00:36:31.232Z,99692.47
2023-05-15T00:41:37.738Z,99702.03
2023-05-15T00:46:41.914Z,99690.09
2023-05-15T00:51:44.835Z,99689.69
2023-05-15T00:56:50.868Z,99690.97
2023-05-15T01:01:53.665Z,99675.31
2023-05-15T01:06:56.820Z,99679.31
2023-05-15T01:12:03.328Z,99671.59
2023-05-15T01:17:06.158Z,99672.78
2023-05-15T01:22:38.552Z,99667.22
2023-05-15T01:27:46.201Z,99656.69
2023-05-15T01:32:55.125Z,99650.00
2023-05-15T01:38:14.030Z,99652.13
2023-05-15T01:43:23.002Z,99648.00
2023-05-15T01:48:27.445Z,99647.41
2023-05-15T01:53:33.857Z,99648.53
2023-05-15T01:58:39.269Z,99643.59
2023-05-15T02:03:44.134Z,99635.03
2023-05-15T02:08:49.125Z,99626.19
2023-05-15T02:13:55.905Z,99628.34
2023-05-15T02:18:58.761Z,99620.66
2023-05-15T02:24:01.619Z,99613.81
2023-05-15T02:29:19.447Z,99613.56
2023-05-15T02:34:29.203Z,99611.00
2023-05-15T02:39:34.464Z,99603.47
2023-05-15T02:44:39.930Z,99597.31
2023-05-15T02:49:43.132Z,99591.34
2023-05-15T02:54:45.990Z,99584.34
2023-05-15T02:59:50.207Z,99589.91
2023-05-15T03:04:53.065Z,99590.06
2023-05-15T03:09:56.112Z,99580.69
2023-05-15T03:15:00.751Z,99579.78
2023-05-15T03:20:04.713Z,99587.38
2023-05-15T03:25:08.915Z,99574.84
2023-05-15T03:30:13.464Z,99576.81
2023-05-15T03:35:16.625Z,99575.09
2023-05-15T03:40:19.863Z,99573.78
2023-05-15T03:45:24.237Z,99575.91
2023-05-15T03:50:27.256Z,99577.94
2023-05-15T03:55:30.182Z,99579.94
2023-05-15T04:00:34.325Z,99572.66
2023-05-15T04:05:37.206Z,99571.94
2023-05-15T04:10:40.072Z,99566.81
2023-05-15T04:15:44.290Z,99565.13
2023-05-15T04:20:47.141Z,99558.88
2023-05-15T04:25:49.984Z,99568.94
2023-05-15T04:30:54.096Z,99570.78
2023-05-15T04:35:56.904Z,99561.97
2023-05-15T04:40:59.600Z,99559.28
2023-05-15T04:46:03.835Z,99554.03
2023-05-15T04:51:07.521Z,99555.00
2023-05-15T04:56:10.810Z,99546.19
2023-05-15T05:01:15.065Z,99551.59
2023-05-15T05:06:17.910Z,99552.59
2023-05-15T05:11:21.540Z,99541.78
2023-05-15T05:16:25.727Z,99544.47
2023-05-15T05:21:28.667Z,99528.97
2023-05-15T05:26:31.484Z,99529.09
2023-05-15T05:31:35.648Z,99527.25
2023-05-15T05:36:38.710Z,99535.09
2023-05-15T05:41:41.514Z,99523.28
2023-05-15T05:46:46.337Z,99523.13
2023-05-15T05:51:49.110Z,99522.72
2023-05-15T05:56:51.830Z,99509.88
2023-05-15T06:01:56.107Z,99507.03
2023-05-15T06:06:58.829Z,99510.31
2023-05-15T06:12:04.582Z,99509.19
2023-05-15T06:17:09.294Z,99504.47
2023-05-15T06:22:12.126Z,99504.31
2023-05-15T06:27:14.890Z,99498.81
2023-05-15T06:32:19.107Z,99497.94
2023-05-15T06:37:22.089Z,99500.66
2023-05-15T06:42:24.844Z,99495.25
2023-05-15T06:47:29.006Z,99495.13
2023-05-15T06:52:31.815Z,99492.81
2023-05-15T06:57:34.812Z,99500.00
2023-05-15T07:02:39.144Z,99487.88
2023-05-15T07:07:42.735Z,99492.44
2023-05-15T07:12:45.986Z,99477.06
2023-05-15T07:17:50.363Z,99489.28
2023-05-15T07:22:56.820Z,99481.97
2023-05-15T07:28:00.072Z,99485.19
2023-05-15T07:33:04.523Z,99487.19
2023-05-15T07:38:08.055Z,99473.06
2023-05-15T07:43:11.017Z,99480.94
2023-05-15T07:48:20.615Z,99479.28
2023-05-15T07:53:23.528Z,99472.50
2023-05-15T07:58:27.362Z,99472.19
2023-05-15T08:03:31.877Z,99468.66
2023-05-15T08:08:34.849Z,99460.50
2023-05-15T08:13:37.772Z,99458.50
2023-05-15T08:18:41.997Z,99455.50
2023-05-15T08:23:44.837Z,99454.34
2023-05-15T08:28:47.612Z,99445.25
2023-05-15T08:33:51.738Z,99446.94
2023-05-15T08:38:54.508Z,99444.53
2023-05-15T08:43:59.384Z,99442.31
2023-05-15T08:49:12.464Z,99439.28
2023-05-15T08:54:16.469Z,99432.91
2023-05-15T08:59:19.561Z,99432.34
2023-05-15T09:04:23.820Z,99424.94
2023-05-15T09:09:29.269Z,99427.09
2023-05-15T09:14:32.017Z,99420.69
2023-05-15T09:19:37.224Z,99414.44
2023-05-15T09:24:40.010Z,99405.25
2023-05-15T09:29:42.939Z,99416.06
2023-05-15T09:34:47.253Z,99402.94
2023-05-15T09:39:50.355Z,99408.13
2023-05-15T09:44:53.358Z,99397.03
2023-05-15T09:49:57.734Z,99410.13
2023-05-15T09:55:00.783Z,99402.72
2023-05-15T10:00:10.274Z,99394.31
2023-05-15T10:05:16.702Z,99388.69
2023-05-15T10:10:19.569Z,99386.09
2023-05-15T10:15:23.661Z,99398.78
2023-05-15T10:20:28.322Z,99395.94
2023-05-15T10:25:39.152Z,99391.66
2023-05-15T10:30:43.531Z,99381.56
2023-05-15T10:35:49.462Z,99378.28
2023-05-15T10:40:59.732Z,99376.75
2023-05-15T10:46:06.877Z,99366.38
2023-05-15T10:51:17.095Z,99364.53
2023-05-15T10:56:20.100Z,99366.53
2023-05-15T11:01:36.217Z,99359.53
2023-05-15T11:06:43.747Z,99350.00
2023-05-15T11:11:58.003Z,99355.97
2023-05-15T11:17:04.765Z,99350.88
2023-05-15T11:22:20.688Z,99332.97
2023-05-15T11:27:26.113Z,99343.03
2023-05-15T11:32:49.235Z,99326.81
2023-05-15T11:37:54.949Z,99321.84
2023-05-15T11:43:05.914Z,99312.06
2023-05-15T11:48:13.421Z,99310.91
2023-05-15T11:53:18.001Z,99304.53
2023-05-15T11:58:23.279Z,99307.63
2023-05-15T12:03:27.925Z,99305.63
2023-05-15T12:08:34.416Z,99316.56
2023-05-15T12:13:37.589Z,99315.03
2023-05-15T12:18:40.473Z,99316.56
2023-05-15T12:24:03.538Z,99317.13
2023-05-15T12:29:10.646Z,99305.00
2023-05-15T12:34:13.892Z,99322.97
2023-05-15T12:39:18.287Z,99319.25
2023-05-15T12:44:22.043Z,99319.78
2023-05-15T12:49:24.892Z,99318.50
2023-05-15T12:54:29.041Z,99314.72
2023-05-15T12:59:32.621Z,99312.69
2023-05-15T13:04:36.002Z,99298.88
2023-05-15T13:09:41.187Z,99293.72
2023-05-15T13:14:44.248Z,99292.44
2023-05-15T13:19:46.981Z,99281.72
2023-05-15T13:24:53.001Z,99278.25
2023-05-15T13:29:55.881Z,99275.88
2023-05-15T13:34:58.726Z,99279.09
2023-05-15T13:40:06.504Z,99278.50
2023-05-15T13:45:10.664Z,99271.78
2023-05-15T13:50:15.261Z,99272.19
2023-05-15T13:55:21.472Z,99292.75
2023-05-15T14:00:26.094Z,99281.47
2023-05-15T14:05:29.271Z,99294.00
2023-05-15T14:10:36.259Z,99290.97
2023-05-15T14:15:39.329Z,99302.81
2023-05-15T14:20:42.125Z,99286.28
2023-05-15T14:25:46.441Z,99294.53
2023-05-15T14:30:49.413Z,99280.31
2023-05-15T14:35:52.586Z,99274.72
2023-05-15T14:40:56.919Z,99274.97
2023-05-15T14:45:59.830Z,99271.38
2023-05-15T14:51:03.108Z,99273.44
2023-05-15T14:56:07.631Z,99271.31
2023-05-15T15:01:10.656Z,99281.13
2023-05-15T15:06:13.616Z,99274.41
2023-05-15T15:11:17.809Z,99279.81
2023-05-15T15:16:20.625Z,99276.78
2023-05-15T15:21:23.660Z,99276.88
2023-05-15T15:26:28.996Z,99269.50
2023-05-15T15:31:32.528Z,99274.91
2023-05-15T15:36:37.627Z,99290.13
2023-05-15T15:41:41.909Z,99271.09
2023-05-15T15:46:44.943Z,99273.88
2023-05-15T15:51:47.858Z,99287.19
2023-05-15T15:56:52.625Z,99290.28
2023-05-15T16:01:55.710Z,99289.78
2023-05-15T16:06:58.597Z,99291.97
2023-05-15T16:12:03.637Z,99298.44
2023-05-15T16:17:06.559Z,99287.91
2023-05-15T16:22:09.447Z,99289.84
2023-05-15T16:27:13.532Z,99287.81
2023-05-15T16:32:16.405Z,99301.97
2023-05-15T16:37:19.456Z,99294.47
2023-05-15T16:42:23.874Z,99297.72
2023-05-15T16:47:26.694Z,99294.25
2023-05-15T16:52:29.755Z,99297.16
2023-05-15T16:57:33.950Z,99313.13
2023-05-15T17:02:37.176Z,99313.75
2023-05-15T17:07:40.183Z,99321.34
2023-05-15T17:12:44.809Z,99314.94
2023-05-15T17:17:47.714Z,99320.34
2023-05-15T17:22:50.649Z,99317.63
2023-05-15T17:27:55.048Z,99321.88
2023-05-15T17:32:57.981Z,99325.31
2023-05-15T17:38:00.877Z,99330.09
2023-05-15T17:43:05.268Z,99335.41
2023-05-15T17:48:08.186Z,99344.91
2023-05-15T17:53:10.968Z,99335.09
2023-05-15T17:58:15.283Z,99351.75
2023-05-15T18:03:18.187Z,99354.97
2023-05-15T18:08:21.157Z,99362.09
2023-05-15T18:13:25.348Z,99359.75
2023-05-15T18:18:28.232Z,99359.72
2023-05-15T18:23:31.320Z,99364.63
2023-05-15T18:28:35.506Z,99379.41
2023-05-15T18:33:39.580Z,99384.81
2023-05-15T18:38:42.562Z,99389.91
2023-05-15T18:43:47.331Z,99395.69
2023-05-15T18:48:50.194Z,99397.75
2023-05-15T18:53:53.091Z,99400.19
2023-05-15T18:58:57.274Z,99413.91
2023-05-15T19:04:00.228Z,99420.59
2023-05-15T19:09:03.303Z,99418.88
2023-05-15T19:14:07.930Z,99423.31
2023-05-15T19:19:11.123Z,99432.44
2023-05-15T19:24:14.136Z,99444.03
2023-05-15T19:29:18.283Z,99450.81
2023-05-15T19:34:21.132Z,99458.94
2023-05-15T19:39:24.018Z,99461.66
2023-05-15T19:44:28.325Z,99470.53
2023-05-15T19:49:31.141Z,99471.19
2023-05-15T19:54:34.090Z,99479.19
2023-05-15T19:59:38.643Z,99483.44
2023-05-15T20:04:41.437Z,99482.13
2023-05-15T20:09:44.213Z,99488.22
2023-05-15T20:14:51.779Z,99487.38
2023-05-15T20:19:54.676Z,99489.94
2023-05-15T20:24:57.431Z,99493.00
2023-05-15T20:30:03.416Z,99503.34
2023-05-15T20:35:07.476Z,99514.56
2023-05-15T20:40:12.811Z,99509.97
2023-05-15T20:45:17.157Z,99516.06
2023-05-15T20:50:20.735Z,99515.59
2023-05-15T20:55:23.553Z,99508.28
2023-05-15T21:00:28.198Z,99506.97
2023-05-15T21:05:31.294Z,99497.78
2023-05-15T21:10:34.034Z,99499.34
2023-05-15T21:15:38.383Z,99501.88
2023-05-15T21:20:41.232Z,99503.41
2023-05-15T21:25:44.027Z,99511.72
2023-05-15T21:30:48.298Z,99506.97
2023-05-15T21:35:51.318Z,99502.56
2023-05-15T21:40:54.439Z,99523.13
2023-05-15T21:45:58.789Z,99518.88
2023-05-15T21:51:01.756Z,99531.25
2023-05-15T21:56:04.942Z,99528.53
2023-05-15T22:01:09.226Z,99533.47
2023-05-15T22:06:12.089Z,99535.81
2023-05-15T22:11:15.337Z,99535.94
2023-05-15T22:16:19.662Z,99534.06
2023-05-15T22:21:22.473Z,99536.38
2023-05-15T22:26:25.493Z,99547.38
2023-05-15T22:31:29.665Z,99559.44
2023-05-15T22:36:35.087Z,99556.31
2023-05-15T22:41:37.834Z,99559.88
2023-05-15T22:46:42.466Z,99560.72
2023-05-15T22:51:45.287Z,99563.91
2023-05-15T22:56:48.115Z,99577.63
2023-05-15T23:01:52.487Z,99573.03
2023-05-15T23:06:55.788Z,99576.06
2023-05-15T23:11:58.541Z,99574.44
2023-05-15T23:17:02.758Z,99591.38
2023-05-15T23:22:05.828Z,99585.88
2023-05-15T23:27:08.663Z,99584.94
2023-05-15T23:32:13.150Z,99591.38
2023-05-15T23:37:16.682Z,99595.28
2023-05-15T23:42:19.538Z,99598.88
2023-05-15T23:47:23.861Z,99596.97
2023-05-15T23:52:26.708Z,99602.84
2023-05-15T23:57:29.516Z,99601.44
